Flight Track Log - Related Links

Times and Time Zones

All times are in EDT time to prevent confusion due to time zone crossing. See the RPA3228 flight status page for this flight to view local times or setup timezone preferences in your user account.

Time Position Orientation Groundspeed Altitude Reporting Facility
EDT Latitude Longitude Course Direction KTS MPH feet Rate Location/Type
Tue 10:29:48 AM 38.8667 -77.0500 333° Northwest 144 166 1,200  Level Potomac TRACON
Tue 10:32:00 AM 39.1743 -77.2099 330° Northwest  Level FlightAware
Tue 10:32:03 AM 38.9656 -77.1642 318° Northwest 228 262 5,800  Level Washington Center
Tue 10:33:00 AM 39.2614 -77.2489 337° Northwest  Level FlightAware
Tue 10:33:03 AM 39.0211 -77.2214 321° Northwest 250 288 9,600  Level Washington Center
Tue 10:34:00 AM 39.3465 -77.2962 337° Northwest  Level FlightAware
Tue 10:34:01 AM 39.0492 -77.3075 293° West 250 288 11,100  Level Washington Center
Tue 10:35:00 AM 39.4301 -77.3478 333° Northwest  Level FlightAware
Tue 10:35:02 AM 39.1150 -77.3706 323° Northwest 267 307 13,700  Level Washington Center
Tue 10:36:02 AM 39.2086 -77.3864 353° North 280 322 16,000 2,231 Climbing Washington Center
Tue 10:37:03 AM 39.3083 -77.4022 353° North 321 369 18,200 2,182 Climbing Washington Center
Tue 10:38:03 AM 39.4081 -77.4181 353° North 346 398 20,400 1,925 Climbing Washington Center
Tue 10:40:10 AM 39.6464 -77.4633 352° North 388 447 24,200 1,701 Climbing New Center
Tue 10:41:10 AM 39.7567 -77.5008 345° North 394 453 25,700 900 Climbing New Center
Tue 10:42:10 AM 39.8653 -77.5383 345° North 399 459 26,000 150 Climbing New Center
Tue 10:43:10 AM 39.9756 -77.5761 345° North 399 459 26,000  Level New Center
Tue 10:45:15 AM 40.1942 -77.6531 345° North 403 464 26,000  Level Cleveland Center
Tue 10:46:15 AM 40.3056 -77.6917 345° North 395 455 26,000  Level Cleveland Center
Tue 10:47:15 AM 40.4192 -77.7303 345° North 400 460 26,000  Level Cleveland Center
Tue 10:48:15 AM 40.5392 -77.7717 345° North 418 481 26,000  Level Cleveland Center
Tue 10:49:15 AM 40.6569 -77.8133 345° North 433 498 26,000  Level Cleveland Center
Tue 10:50:15 AM 40.7661 -77.8525 345° North 441 507 26,000  Level Cleveland Center
Tue 10:51:15 AM 40.8839 -77.8944 345° North 441 507 26,000  Level Cleveland Center
Tue 10:52:15 AM 41.0039 -77.9361 345° North 441 507 26,000  Level Cleveland Center
Tue 10:53:15 AM 41.1217 -77.9811 344° North 441 507 26,000  Level Cleveland Center
Tue 10:54:15 AM 41.2414 -78.0233 345° North 441 507 26,000  Level Cleveland Center
Tue 10:55:15 AM 41.3611 -78.0628 346° North 441 507 26,000  Level Cleveland Center
Tue 10:56:15 AM 41.4767 -78.1081 344° North 441 507 26,000  Level Cleveland Center
Tue 10:57:15 AM 41.5964 -78.1508 345° North 441 507 26,000  Level Cleveland Center
Tue 10:58:15 AM 41.7267 -78.1986 345° North 441 507 26,000 -700 Level Cleveland Center
Tue 10:59:15 AM 41.8422 -78.2392 345° North 436 502 24,600 -2,050 Descending Cleveland Center
Tue 11:00:15 AM 41.9514 -78.2797 345° North 424 488 21,900 -2,700 Descending Cleveland Center
Tue 11:01:15 AM 42.0628 -78.3206 345° North 415 478 19,200 -2,600 Descending Cleveland Center
Tue 11:02:15 AM 42.1658 -78.3589 345° North 396 456 16,700 -2,300 Descending Cleveland Center
Tue 11:03:15 AM 42.2581 -78.3950 344° North 390 449 14,600 -2,250 Descending Cleveland Center
Tue 11:04:15 AM 42.3547 -78.4308 345° North 373 429 12,200 -2,050 Descending Cleveland Center
Tue 11:05:15 AM 42.4492 -78.4642 345° North 360 414 10,500 -1,300 Descending Cleveland Center
Tue 11:06:15 AM 42.5267 -78.4928 345° North 324 373 9,600 -1,350 Descending Cleveland Center
Tue 11:07:15 AM 42.6017 -78.4875 North 285 328 7,800 -1,750 Descending Cleveland Center
Tue 11:08:15 AM 42.6767 -78.4792 North 272 313 6,100 -900 Descending Cleveland Center
Tue 11:09:15 AM 42.7578 -78.4794 360° North 267 307 6,000 -500 Descending Cleveland Center
Tue 11:10:15 AM 42.8119 -78.4719 North 228 262 5,100 -1,000 Descending Cleveland Center
Tue 11:11:15 AM 42.8722 -78.4642 North 215 247 4,000 -550 Descending Cleveland Center
Tue 11:12:15 AM 42.9367 -78.4564 North 215 247 4,000 -484 Level Cleveland Center
Tue 11:13:56 AM 43.0167 -78.4833 346° North 198 228 2,700 -596 Descending Buffalo TRACON
Tue 11:14:56 AM 43.0500 -78.5500 304° West 196 226 2,400 -200 Descending Buffalo TRACON
Tue 11:15:56 AM 43.0333 -78.6000 246° West 175 201 2,300 -50 Descending Buffalo TRACON
Tue 11:16:56 AM 43.0000 -78.6500 228° Southwest 156 180 2,300 -368 Level Buffalo TRACON
Tue 11:17:50 AM 42.9833 -78.6833 236° Southwest 155 178 1,600 -778 Descending Buffalo TRACON
Tue 11:18:44 AM 42.9500 -78.7167 216° Southwest 134 154 900 -778 Descending Buffalo TRACON

Login

Don't have an account? Register now (free) for customized features, flight alerts, and more!